sensor_id;sensor_type;location;lat;lon;timestamp;pressure;altitude;pressure_sealevel;temperature;humidity
37200;BME280;23096;50.892;16.746;2022-12-29T00:01:36;98985.77;;;8.06;62.44
37200;BME280;23096;50.892;16.746;2022-12-29T00:04:05;98979.95;;;8.18;62.38
37200;BME280;23096;50.892;16.746;2022-12-29T00:06:33;98987.02;;;8.24;62.38
37200;BME280;23096;50.892;16.746;2022-12-29T00:09:00;98982.99;;;8.32;62.38
37200;BME280;23096;50.892;16.746;2022-12-29T00:11:27;98988.40;;;8.38;62.31
37200;BME280;23096;50.892;16.746;2022-12-29T00:13:54;98975.95;;;8.39;62.27
37200;BME280;23096;50.892;16.746;2022-12-29T00:16:44;98970.32;;;8.41;62.23
37200;BME280;23096;50.892;16.746;2022-12-29T00:19:09;98965.59;;;8.43;62.19
37200;BME280;23096;50.892;16.746;2022-12-29T00:21:39;98939.39;;;8.47;62.14
37200;BME280;23096;50.892;16.746;2022-12-29T00:24:24;98949.55;;;8.50;62.13
37200;BME280;23096;50.892;16.746;2022-12-29T00:29:53;98945.32;;;8.49;61.94
37200;BME280;23096;50.892;16.746;2022-12-29T00:32:39;98942.03;;;8.44;61.88
37200;BME280;23096;50.892;16.746;2022-12-29T00:35:28;98940.75;;;8.44;61.90
37200;BME280;23096;50.892;16.746;2022-12-29T00:37:58;98949.36;;;8.41;61.82
37200;BME280;23096;50.892;16.746;2022-12-29T00:40:45;98935.66;;;8.41;61.80
37200;BME280;23096;50.892;16.746;2022-12-29T00:43:23;98932.78;;;8.37;61.73
37200;BME280;23096;50.892;16.746;2022-12-29T00:46:08;98940.14;;;8.34;61.68
37200;BME280;23096;50.892;16.746;2022-12-29T00:48:35;98927.80;;;8.32;61.67
37200;BME280;23096;50.892;16.746;2022-12-29T00:51:20;98919.65;;;8.33;61.67
37200;BME280;23096;50.892;16.746;2022-12-29T00:53:47;98917.98;;;8.30;61.61
37200;BME280;23096;50.892;16.746;2022-12-29T00:56:14;98909.08;;;8.29;61.54
37200;BME280;23096;50.892;16.746;2022-12-29T00:58:40;98903.11;;;8.26;61.53
37200;BME280;23096;50.892;16.746;2022-12-29T01:01:08;98893.30;;;8.26;61.49
37200;BME280;23096;50.892;16.746;2022-12-29T01:03:35;98892.05;;;8.24;61.51
37200;BME280;23096;50.892;16.746;2022-12-29T01:06:03;98898.73;;;8.30;61.54
37200;BME280;23096;50.892;16.746;2022-12-29T01:08:32;98886.73;;;8.32;61.54
37200;BME280;23096;50.892;16.746;2022-12-29T01:11:00;98901.23;;;8.33;61.47
37200;BME280;23096;50.892;16.746;2022-12-29T01:13:29;98904.20;;;8.34;61.49
37200;BME280;23096;50.892;16.746;2022-12-29T01:15:56;98888.35;;;8.35;61.42
37200;BME280;23096;50.892;16.746;2022-12-29T01:18:24;98884.58;;;8.32;61.32
37200;BME280;23096;50.892;16.746;2022-12-29T01:20:57;98895.30;;;8.31;61.31
37200;BME280;23096;50.892;16.746;2022-12-29T01:23:27;98887.64;;;8.30;61.28
37200;BME280;23096;50.892;16.746;2022-12-29T01:25:54;98896.66;;;8.28;61.22
37200;BME280;23096;50.892;16.746;2022-12-29T01:28:22;98896.31;;;8.25;61.21
37200;BME280;23096;50.892;16.746;2022-12-29T01:30:49;98909.53;;;8.26;61.18
37200;BME280;23096;50.892;16.746;2022-12-29T01:33:15;98914.31;;;8.24;61.16
37200;BME280;23096;50.892;16.746;2022-12-29T01:35:42;98908.25;;;8.26;61.18
37200;BME280;23096;50.892;16.746;2022-12-29T01:38:09;98898.43;;;8.26;61.08
37200;BME280;23096;50.892;16.746;2022-12-29T01:40:46;98902.73;;;8.25;61.03
37200;BME280;23096;50.892;16.746;2022-12-29T01:43:13;98898.09;;;8.23;60.95
37200;BME280;23096;50.892;16.746;2022-12-29T01:45:44;98903.70;;;8.21;60.97
37200;BME280;23096;50.892;16.746;2022-12-29T01:48:10;98903.30;;;8.20;60.92
37200;BME280;23096;50.892;16.746;2022-12-29T01:50:57;98893.90;;;8.19;60.93
37200;BME280;23096;50.892;16.746;2022-12-29T01:53:16;98893.44;;;8.21;60.91
37200;BME280;23096;50.892;16.746;2022-12-29T01:55:55;98884.84;;;8.22;60.83
37200;BME280;23096;50.892;16.746;2022-12-29T01:58:26;98878.05;;;8.21;60.79
37200;BME280;23096;50.892;16.746;2022-12-29T02:00:54;98875.06;;;8.20;60.77
37200;BME280;23096;50.892;16.746;2022-12-29T02:03:21;98867.36;;;8.20;60.75
37200;BME280;23096;50.892;16.746;2022-12-29T02:05:52;98870.34;;;8.21;60.75
37200;BME280;23096;50.892;16.746;2022-12-29T02:08:22;98856.16;;;8.23;60.69
37200;BME280;23096;50.892;16.746;2022-12-29T02:10:51;98862.64;;;8.21;60.62
37200;BME280;23096;50.892;16.746;2022-12-29T02:13:23;98852.84;;;8.19;60.52
37200;BME280;23096;50.892;16.746;2022-12-29T02:26:52;98852.95;;;8.16;60.36
37200;BME280;23096;50.892;16.746;2022-12-29T02:37:56;98839.20;;;8.17;60.13
37200;BME280;23096;50.892;16.746;2022-12-29T02:43:31;98851.62;;;8.33;60.02
37200;BME280;23096;50.892;16.746;2022-12-29T02:48:46;98844.14;;;8.40;59.78
37200;BME280;23096;50.892;16.746;2022-12-29T02:54:02;98848.44;;;8.39;59.48
37200;BME280;23096;50.892;16.746;2022-12-29T02:56:48;98842.59;;;8.34;59.37
37200;BME280;23096;50.892;16.746;2022-12-29T02:59:16;98848.34;;;8.28;59.34
37200;BME280;23096;50.892;16.746;2022-12-29T03:01:55;98847.05;;;8.28;59.32
37200;BME280;23096;50.892;16.746;2022-12-29T03:10:19;98821.69;;;8.32;59.21
37200;BME280;23096;50.892;16.746;2022-12-29T03:18:37;98804.14;;;8.18;59.05
37200;BME280;23096;50.892;16.746;2022-12-29T03:21:07;98806.45;;;8.12;59.00
37200;BME280;23096;50.892;16.746;2022-12-29T03:23:39;98806.08;;;8.10;59.02
37200;BME280;23096;50.892;16.746;2022-12-29T03:26:08;98800.16;;;8.08;59.05
37200;BME280;23096;50.892;16.746;2022-12-29T03:28:42;98797.47;;;8.12;59.14
37200;BME280;23096;50.892;16.746;2022-12-29T03:31:13;98795.73;;;8.13;59.06
37200;BME280;23096;50.892;16.746;2022-12-29T03:33:40;98799.73;;;8.06;58.94
37200;BME280;23096;50.892;16.746;2022-12-29T03:36:10;98797.81;;;8.00;58.95
37200;BME280;23096;50.892;16.746;2022-12-29T03:38:44;98795.36;;;7.95;58.94
37200;BME280;23096;50.892;16.746;2022-12-29T03:41:15;98797.63;;;7.91;58.93
37200;BME280;23096;50.892;16.746;2022-12-29T03:43:44;98801.17;;;7.87;59.00
37200;BME280;23096;50.892;16.746;2022-12-29T03:46:12;98804.15;;;7.86;59.02
37200;BME280;23096;50.892;16.746;2022-12-29T03:48:39;98807.13;;;7.87;59.05
37200;BME280;23096;50.892;16.746;2022-12-29T03:51:06;98804.56;;;7.87;59.08
37200;BME280;23096;50.892;16.746;2022-12-29T03:53:32;98802.41;;;7.89;59.08
37200;BME280;23096;50.892;16.746;2022-12-29T03:56:00;98801.12;;;7.89;59.11
37200;BME280;23096;50.892;16.746;2022-12-29T03:58:27;98805.36;;;7.90;59.13
37200;BME280;23096;50.892;16.746;2022-12-29T04:00:56;98804.00;;;7.93;59.21
37200;BME280;23096;50.892;16.746;2022-12-29T04:03:23;98806.38;;;7.99;59.28
37200;BME280;23096;50.892;16.746;2022-12-29T04:05:50;98804.12;;;8.03;59.25
37200;BME280;23096;50.892;16.746;2022-12-29T04:08:18;98814.72;;;8.07;59.23
37200;BME280;23096;50.892;16.746;2022-12-29T04:10:45;98822.67;;;8.13;59.28
37200;BME280;23096;50.892;16.746;2022-12-29T04:13:13;98816.83;;;8.22;59.27
37200;BME280;23096;50.892;16.746;2022-12-29T04:15:40;98810.63;;;8.30;59.28
37200;BME280;23096;50.892;16.746;2022-12-29T04:18:09;98793.70;;;8.37;59.25
37200;BME280;23096;50.892;16.746;2022-12-29T04:20:36;98793.95;;;8.44;59.15
37200;BME280;23096;50.892;16.746;2022-12-29T04:23:22;98789.48;;;8.51;59.08
37200;BME280;23096;50.892;16.746;2022-12-29T04:25:49;98785.97;;;8.54;59.01
37200;BME280;23096;50.892;16.746;2022-12-29T04:28:16;98785.38;;;8.59;58.94
37200;BME280;23096;50.892;16.746;2022-12-29T04:31:02;98786.58;;;8.62;58.83
37200;BME280;23096;50.892;16.746;2022-12-29T04:33:32;98780.95;;;8.64;58.74
37200;BME280;23096;50.892;16.746;2022-12-29T04:35:58;98783.02;;;8.66;58.72
37200;BME280;23096;50.892;16.746;2022-12-29T04:38:25;98783.88;;;8.67;58.61
37200;BME280;23096;50.892;16.746;2022-12-29T04:40:53;98792.42;;;8.67;58.51
37200;BME280;23096;50.892;16.746;2022-12-29T04:43:22;98794.98;;;8.67;58.46
37200;BME280;23096;50.892;16.746;2022-12-29T04:45:54;98795.44;;;8.67;58.39
37200;BME280;23096;50.892;16.746;2022-12-29T04:48:23;98800.17;;;8.66;58.36
37200;BME280;23096;50.892;16.746;2022-12-29T04:50:51;98805.30;;;8.66;58.29
37200;BME280;23096;50.892;16.746;2022-12-29T04:53:20;98798.09;;;8.63;58.27
37200;BME280;23096;50.892;16.746;2022-12-29T04:55:51;98781.86;;;8.63;58.24
37200;BME280;23096;50.892;16.746;2022-12-29T04:58:19;98779.75;;;8.61;58.22
37200;BME280;23096;50.892;16.746;2022-12-29T05:00:47;98771.75;;;8.57;58.20
37200;BME280;23096;50.892;16.746;2022-12-29T05:03:14;98770.63;;;8.52;58.13
37200;BME280;23096;50.892;16.746;2022-12-29T05:05:42;98776.34;;;8.47;58.11
37200;BME280;23096;50.892;16.746;2022-12-29T05:08:10;98780.28;;;8.44;58.12
37200;BME280;23096;50.892;16.746;2022-12-29T05:10:37;98779.05;;;8.42;58.09
37200;BME280;23096;50.892;16.746;2022-12-29T05:13:06;98770.92;;;8.41;58.07
37200;BME280;23096;50.892;16.746;2022-12-29T05:15:32;98764.19;;;8.37;58.05
37200;BME280;23096;50.892;16.746;2022-12-29T05:18:00;98764.67;;;8.35;58.04
37200;BME280;23096;50.892;16.746;2022-12-29T05:20:27;98757.97;;;8.31;57.93
37200;BME280;23096;50.892;16.746;2022-12-29T05:22:53;98751.83;;;8.22;57.90
37200;BME280;23096;50.892;16.746;2022-12-29T05:25:20;98748.97;;;8.18;57.92
37200;BME280;23096;50.892;16.746;2022-12-29T05:27:49;98748.30;;;8.11;57.88
37200;BME280;23096;50.892;16.746;2022-12-29T05:30:18;98733.09;;;8.05;57.84
37200;BME280;23096;50.892;16.746;2022-12-29T05:32:45;98726.02;;;7.98;57.85
37200;BME280;23096;50.892;16.746;2022-12-29T05:35:12;98732.66;;;7.91;57.84
37200;BME280;23096;50.892;16.746;2022-12-29T05:37:39;98731.98;;;7.84;57.85
37200;BME280;23096;50.892;16.746;2022-12-29T05:40:07;98727.50;;;7.76;57.83
37200;BME280;23096;50.892;16.746;2022-12-29T05:42:34;98722.60;;;7.68;57.86
37200;BME280;23096;50.892;16.746;2022-12-29T05:45:09;98736.85;;;7.63;57.90
37200;BME280;23096;50.892;16.746;2022-12-29T05:47:47;98726.75;;;7.57;57.93
37200;BME280;23096;50.892;16.746;2022-12-29T05:50:30;98727.31;;;7.52;57.93
37200;BME280;23096;50.892;16.746;2022-12-29T05:53:02;98731.38;;;7.44;57.96
37200;BME280;23096;50.892;16.746;2022-12-29T05:55:29;98726.81;;;7.39;58.00
37200;BME280;23096;50.892;16.746;2022-12-29T05:57:56;98717.05;;;7.37;58.09
37200;BME280;23096;50.892;16.746;2022-12-29T06:00:23;98726.91;;;7.36;58.15
37200;BME280;23096;50.892;16.746;2022-12-29T06:02:50;98732.39;;;7.39;58.27
37200;BME280;23096;50.892;16.746;2022-12-29T06:05:17;98722.93;;;7.41;58.30
37200;BME280;23096;50.892;16.746;2022-12-29T06:07:44;98720.78;;;7.42;58.36
37200;BME280;23096;50.892;16.746;2022-12-29T06:10:13;98719.01;;;7.44;58.45
37200;BME280;23096;50.892;16.746;2022-12-29T06:12:45;98723.20;;;7.46;58.51
37200;BME280;23096;50.892;16.746;2022-12-29T06:15:12;98725.99;;;7.54;58.61
37200;BME280;23096;50.892;16.746;2022-12-29T06:17:41;98720.75;;;7.58;58.63
37200;BME280;23096;50.892;16.746;2022-12-29T06:20:08;98708.31;;;7.59;58.59
37200;BME280;23096;50.892;16.746;2022-12-29T06:22:36;98699.71;;;7.62;58.66
37200;BME280;23096;50.892;16.746;2022-12-29T06:25:03;98703.56;;;7.62;58.61
37200;BME280;23096;50.892;16.746;2022-12-29T06:27:33;98696.35;;;7.60;58.64
37200;BME280;23096;50.892;16.746;2022-12-29T06:30:00;98687.27;;;7.63;58.80
37200;BME280;23096;50.892;16.746;2022-12-29T06:32:27;98694.89;;;7.66;58.76
37200;BME280;23096;50.892;16.746;2022-12-29T06:34:56;98679.50;;;7.66;58.77
37200;BME280;23096;50.892;16.746;2022-12-29T06:37:24;98691.34;;;7.70;58.83
37200;BME280;23096;50.892;16.746;2022-12-29T06:39:51;98696.39;;;7.73;58.82
37200;BME280;23096;50.892;16.746;2022-12-29T06:42:18;98696.27;;;7.78;58.88
37200;BME280;23096;50.892;16.746;2022-12-29T06:44:47;98702.45;;;7.85;58.96
37200;BME280;23096;50.892;16.746;2022-12-29T06:47:13;98703.45;;;7.95;59.10
37200;BME280;23096;50.892;16.746;2022-12-29T06:49:41;98704.76;;;8.08;59.08
37200;BME280;23096;50.892;16.746;2022-12-29T06:52:07;98710.84;;;8.19;59.10
37200;BME280;23096;50.892;16.746;2022-12-29T06:54:34;98712.71;;;8.29;59.05
37200;BME280;23096;50.892;16.746;2022-12-29T06:57:01;98702.23;;;8.35;59.05
37200;BME280;23096;50.892;16.746;2022-12-29T06:59:28;98714.44;;;8.43;59.05
37200;BME280;23096;50.892;16.746;2022-12-29T07:01:55;98711.20;;;8.50;58.96
37200;BME280;23096;50.892;16.746;2022-12-29T07:04:22;98716.50;;;8.58;58.98
37200;BME280;23096;50.892;16.746;2022-12-29T07:06:49;98705.97;;;8.66;58.97
37200;BME280;23096;50.892;16.746;2022-12-29T07:09:16;98711.30;;;8.73;58.90
37200;BME280;23096;50.892;16.746;2022-12-29T07:11:42;98713.23;;;8.80;58.90
37200;BME280;23096;50.892;16.746;2022-12-29T07:14:10;98716.38;;;8.88;58.85
37200;BME280;23096;50.892;16.746;2022-12-29T07:16:37;98708.86;;;8.95;58.81
37200;BME280;23096;50.892;16.746;2022-12-29T07:19:05;98729.59;;;9.02;58.77
37200;BME280;23096;50.892;16.746;2022-12-29T07:21:32;98742.31;;;9.07;58.79
37200;BME280;23096;50.892;16.746;2022-12-29T07:23:59;98735.57;;;9.16;58.81
37200;BME280;23096;50.892;16.746;2022-12-29T07:26:25;98752.36;;;9.27;58.75
37200;BME280;23096;50.892;16.746;2022-12-29T07:28:52;98748.73;;;9.32;58.69
37200;BME280;23096;50.892;16.746;2022-12-29T07:31:21;98751.55;;;9.38;58.64
37200;BME280;23096;50.892;16.746;2022-12-29T07:33:48;98745.84;;;9.42;58.58
37200;BME280;23096;50.892;16.746;2022-12-29T07:36:15;98751.27;;;9.46;58.57
37200;BME280;23096;50.892;16.746;2022-12-29T07:38:43;98739.64;;;9.47;58.49
37200;BME280;23096;50.892;16.746;2022-12-29T07:41:11;98743.00;;;9.49;58.39
37200;BME280;23096;50.892;16.746;2022-12-29T07:43:38;98734.05;;;9.48;58.33
37200;BME280;23096;50.892;16.746;2022-12-29T07:46:07;98734.50;;;9.47;58.24
37200;BME280;23096;50.892;16.746;2022-12-29T07:48:36;98723.89;;;9.45;58.16
37200;BME280;23096;50.892;16.746;2022-12-29T07:51:03;98729.50;;;9.43;58.09
37200;BME280;23096;50.892;16.746;2022-12-29T07:53:30;98734.38;;;9.38;58.02
37200;BME280;23096;50.892;16.746;2022-12-29T07:55:57;98727.67;;;9.34;58.02
37200;BME280;23096;50.892;16.746;2022-12-29T07:58:24;98731.52;;;9.34;58.06
37200;BME280;23096;50.892;16.746;2022-12-29T08:00:54;98725.92;;;9.35;58.11
37200;BME280;23096;50.892;16.746;2022-12-29T08:03:22;98746.77;;;9.39;58.07
37200;BME280;23096;50.892;16.746;2022-12-29T08:05:49;98744.11;;;9.42;58.05
37200;BME280;23096;50.892;16.746;2022-12-29T08:08:16;98749.10;;;9.47;58.09
37200;BME280;23096;50.892;16.746;2022-12-29T08:10:42;98748.09;;;9.51;58.05
37200;BME280;23096;50.892;16.746;2022-12-29T08:13:09;98737.20;;;9.56;57.99
37200;BME280;23096;50.892;16.746;2022-12-29T08:15:38;98748.72;;;9.57;57.93
37200;BME280;23096;50.892;16.746;2022-12-29T08:18:05;98753.00;;;9.57;57.87
37200;BME280;23096;50.892;16.746;2022-12-29T08:20:32;98765.87;;;9.57;57.85
37200;BME280;23096;50.892;16.746;2022-12-29T08:22:59;98765.44;;;9.57;57.81
37200;BME280;23096;50.892;16.746;2022-12-29T08:25:26;98752.22;;;9.55;57.78
37200;BME280;23096;50.892;16.746;2022-12-29T08:27:53;98754.42;;;9.54;57.75
37200;BME280;23096;50.892;16.746;2022-12-29T08:30:19;98747.99;;;9.54;57.74
37200;BME280;23096;50.892;16.746;2022-12-29T08:32:46;98754.42;;;9.54;57.77
37200;BME280;23096;50.892;16.746;2022-12-29T08:35:13;98753.46;;;9.56;57.77
37200;BME280;23096;50.892;16.746;2022-12-29T08:37:40;98751.62;;;9.60;57.79
37200;BME280;23096;50.892;16.746;2022-12-29T08:40:08;98738.25;;;9.62;57.81
37200;BME280;23096;50.892;16.746;2022-12-29T08:42:35;98741.95;;;9.67;57.84
37200;BME280;23096;50.892;16.746;2022-12-29T08:45:02;98746.09;;;9.71;57.87
37200;BME280;23096;50.892;16.746;2022-12-29T08:47:30;98746.77;;;9.76;57.93
37200;BME280;23096;50.892;16.746;2022-12-29T08:49:56;98756.77;;;9.84;58.00
37200;BME280;23096;50.892;16.746;2022-12-29T08:52:23;98740.67;;;9.90;57.99
37200;BME280;23096;50.892;16.746;2022-12-29T08:54:50;98751.23;;;9.94;57.96
37200;BME280;23096;50.892;16.746;2022-12-29T08:57:17;98750.91;;;9.92;57.75
37200;BME280;23096;50.892;16.746;2022-12-29T08:59:46;98751.63;;;9.84;57.75
37200;BME280;23096;50.892;16.746;2022-12-29T09:02:14;98752.54;;;9.83;57.80
37200;BME280;23096;50.892;16.746;2022-12-29T09:04:41;98751.98;;;9.86;57.86
37200;BME280;23096;50.892;16.746;2022-12-29T09:07:08;98757.34;;;9.92;57.85
37200;BME280;23096;50.892;16.746;2022-12-29T09:09:35;98755.41;;;9.97;57.86
37200;BME280;23096;50.892;16.746;2022-12-29T09:12:02;98778.83;;;10.03;57.79
37200;BME280;23096;50.892;16.746;2022-12-29T09:14:29;98787.59;;;10.09;57.74
37200;BME280;23096;50.892;16.746;2022-12-29T09:16:55;98792.64;;;10.12;57.64
37200;BME280;23096;50.892;16.746;2022-12-29T09:19:43;98796.45;;;10.13;57.50
37200;BME280;23096;50.892;16.746;2022-12-29T09:22:10;98801.92;;;10.16;57.36
37200;BME280;23096;50.892;16.746;2022-12-29T09:24:38;98802.80;;;10.15;57.24
37200;BME280;23096;50.892;16.746;2022-12-29T09:27:08;98795.22;;;10.12;57.13
37200;BME280;23096;50.892;16.746;2022-12-29T09:29:35;98797.89;;;10.09;57.01
37200;BME280;23096;50.892;16.746;2022-12-29T09:32:02;98795.00;;;10.06;56.94
37200;BME280;23096;50.892;16.746;2022-12-29T09:34:29;98787.65;;;10.07;56.84
37200;BME280;23096;50.892;16.746;2022-12-29T09:36:57;98800.57;;;10.06;56.80
37200;BME280;23096;50.892;16.746;2022-12-29T09:39:24;98792.06;;;10.04;56.70
37200;BME280;23096;50.892;16.746;2022-12-29T09:47:24;98777.86;;;10.05;56.58
37200;BME280;23096;50.892;16.746;2022-12-29T09:52:23;98782.55;;;10.06;56.55
37200;BME280;23096;50.892;16.746;2022-12-29T10:00:23;98767.67;;;10.02;56.39
37200;BME280;23096;50.892;16.746;2022-12-29T10:02:59;98745.92;;;9.99;56.37
37200;BME280;23096;50.892;16.746;2022-12-29T10:05:27;98750.27;;;9.97;56.36
37200;BME280;23096;50.892;16.746;2022-12-29T10:08:03;98737.30;;;10.00;56.34
37200;BME280;23096;50.892;16.746;2022-12-29T10:22:09;98721.14;;;10.18;56.33
37200;BME280;23096;50.892;16.746;2022-12-29T10:24:38;98710.11;;;10.27;56.32
37200;BME280;23096;50.892;16.746;2022-12-29T10:27:10;98705.92;;;10.36;56.33
37200;BME280;23096;50.892;16.746;2022-12-29T10:29:43;98715.08;;;10.43;56.30
37200;BME280;23096;50.892;16.746;2022-12-29T10:32:26;98709.24;;;10.50;56.25
37200;BME280;23096;50.892;16.746;2022-12-29T10:35:06;98715.94;;;10.54;56.17
37200;BME280;23096;50.892;16.746;2022-12-29T10:40:40;98707.06;;;10.61;56.05
37200;BME280;23096;50.892;16.746;2022-12-29T10:43:29;98700.82;;;10.67;55.94
37200;BME280;23096;50.892;16.746;2022-12-29T10:45:58;98704.23;;;10.67;55.89
37200;BME280;23096;50.892;16.746;2022-12-29T10:48:32;98695.92;;;10.71;55.85
37200;BME280;23096;50.892;16.746;2022-12-29T10:51:02;98694.92;;;10.75;55.83
37200;BME280;23096;50.892;16.746;2022-12-29T10:53:33;98699.92;;;10.78;55.82
37200;BME280;23096;50.892;16.746;2022-12-29T10:56:01;98703.09;;;10.85;55.82
37200;BME280;23096;50.892;16.746;2022-12-29T10:58:28;98710.62;;;10.89;55.80
37200;BME280;23096;50.892;16.746;2022-12-29T11:00:56;98711.33;;;10.93;55.78
37200;BME280;23096;50.892;16.746;2022-12-29T11:06:26;98699.09;;;10.98;55.70
37200;BME280;23096;50.892;16.746;2022-12-29T11:08:57;98701.09;;;11.02;55.65
37200;BME280;23096;50.892;16.746;2022-12-29T11:11:33;98692.00;;;11.03;55.63
37200;BME280;23096;50.892;16.746;2022-12-29T11:14:01;98679.88;;;11.05;55.61
37200;BME280;23096;50.892;16.746;2022-12-29T11:16:30;98678.02;;;11.09;55.59
37200;BME280;23096;50.892;16.746;2022-12-29T11:18:59;98682.98;;;11.13;55.55
37200;BME280;23096;50.892;16.746;2022-12-29T11:21:33;98673.69;;;11.20;55.56
37200;BME280;23096;50.892;16.746;2022-12-29T11:24:03;98670.58;;;11.22;55.49
37200;BME280;23096;50.892;16.746;2022-12-29T11:26:32;98679.88;;;11.26;55.49
37200;BME280;23096;50.892;16.746;2022-12-29T11:31:46;98660.38;;;11.29;55.34
37200;BME280;23096;50.892;16.746;2022-12-29T11:34:17;98659.95;;;11.29;55.31
37200;BME280;23096;50.892;16.746;2022-12-29T11:36:46;98655.93;;;11.32;55.33
37200;BME280;23096;50.892;16.746;2022-12-29T11:39:28;98672.88;;;11.38;55.38
37200;BME280;23096;50.892;16.746;2022-12-29T11:41:56;98663.53;;;11.46;55.41
37200;BME280;23096;50.892;16.746;2022-12-29T11:44:23;98676.20;;;11.50;55.38
37200;BME280;23096;50.892;16.746;2022-12-29T11:46:51;98665.75;;;11.54;55.33
37200;BME280;23096;50.892;16.746;2022-12-29T11:49:22;98664.47;;;11.54;55.23
37200;BME280;23096;50.892;16.746;2022-12-29T11:51:51;98664.12;;;11.51;55.21
37200;BME280;23096;50.892;16.746;2022-12-29T11:54:23;98665.95;;;11.49;55.11
37200;BME280;23096;50.892;16.746;2022-12-29T11:56:51;98664.36;;;11.46;55.08
37200;BME280;23096;50.892;16.746;2022-12-29T12:05:08;98664.30;;;11.38;55.02
37200;BME280;23096;50.892;16.746;2022-12-29T12:07:38;98665.59;;;11.38;54.99
37200;BME280;23096;50.892;16.746;2022-12-29T12:10:16;98671.73;;;11.35;55.01
37200;BME280;23096;50.892;16.746;2022-12-29T12:15:29;98683.41;;;11.34;55.03
37200;BME280;23096;50.892;16.746;2022-12-29T12:18:15;98682.76;;;11.39;55.06
37200;BME280;23096;50.892;16.746;2022-12-29T12:20:54;98686.62;;;11.39;55.02
37200;BME280;23096;50.892;16.746;2022-12-29T12:26:21;98679.02;;;11.36;54.96
37200;BME280;23096;50.892;16.746;2022-12-29T12:29:11;98676.63;;;11.31;54.93
37200;BME280;23096;50.892;16.746;2022-12-29T12:34:43;98674.27;;;11.26;54.90
37200;BME280;23096;50.892;16.746;2022-12-29T12:37:08;98685.99;;;11.23;54.86
37200;BME280;23096;50.892;16.746;2022-12-29T12:39:47;98685.34;;;11.18;54.88
37200;BME280;23096;50.892;16.746;2022-12-29T12:51:18;98669.23;;;11.13;54.93
37200;BME280;23096;50.892;16.746;2022-12-29T12:56:22;98669.81;;;11.20;54.98
37200;BME280;23096;50.892;16.746;2022-12-29T12:58:59;98676.14;;;11.23;54.98
37200;BME280;23096;50.892;16.746;2022-12-29T13:10:25;98660.84;;;11.39;55.00
37200;BME280;23096;50.892;16.746;2022-12-29T13:13:24;98667.13;;;11.42;54.98
37200;BME280;23096;50.892;16.746;2022-12-29T13:15:58;98667.77;;;11.47;54.97
37200;BME280;23096;50.892;16.746;2022-12-29T13:18:33;98658.43;;;11.44;54.92
37200;BME280;23096;50.892;16.746;2022-12-29T13:21:00;98666.17;;;11.44;54.88
37200;BME280;23096;50.892;16.746;2022-12-29T13:23:42;98672.28;;;11.42;54.83
37200;BME280;23096;50.892;16.746;2022-12-29T13:36:36;98697.23;;;11.22;54.77
37200;BME280;23096;50.892;16.746;2022-12-29T13:42:01;98693.30;;;11.13;54.75
37200;BME280;23096;50.892;16.746;2022-12-29T13:44:37;98686.52;;;11.11;54.75
37200;BME280;23096;50.892;16.746;2022-12-29T13:47:14;98694.70;;;11.10;54.78
37200;BME280;23096;50.892;16.746;2022-12-29T13:49:36;98693.88;;;11.10;54.78
37200;BME280;23096;50.892;16.746;2022-12-29T13:52:18;98705.08;;;11.09;54.77
37200;BME280;23096;50.892;16.746;2022-12-29T13:54:44;98700.45;;;11.07;54.72
37200;BME280;23096;50.892;16.746;2022-12-29T14:00:14;98706.64;;;11.03;54.82
37200;BME280;23096;50.892;16.746;2022-12-29T14:07:59;98714.48;;;10.89;54.66
37200;BME280;23096;50.892;16.746;2022-12-29T14:10:29;98707.32;;;10.65;54.50
37200;BME280;23096;50.892;16.746;2022-12-29T14:16:05;98716.97;;;10.16;54.61
37200;BME280;23096;50.892;16.746;2022-12-29T14:18:27;98726.48;;;10.02;54.78
37200;BME280;23096;50.892;16.746;2022-12-29T14:20:56;98731.98;;;9.93;54.88
37200;BME280;23096;50.892;16.746;2022-12-29T14:28:43;98736.19;;;9.84;55.17
37200;BME280;23096;50.892;16.746;2022-12-29T14:44:57;98760.81;;;9.30;55.59
37200;BME280;23096;50.892;16.746;2022-12-29T14:47:55;98766.27;;;9.21;55.64
37200;BME280;23096;50.892;16.746;2022-12-29T14:50:04;98734.50;;;9.10;55.76
37200;BME280;23096;50.892;16.746;2022-12-29T14:52:47;98727.89;;;9.03;55.87
37200;BME280;23096;50.892;16.746;2022-12-29T14:55:40;98736.34;;;8.93;55.96
37200;BME280;23096;50.892;16.746;2022-12-29T15:00:49;98741.88;;;8.81;56.27
37200;BME280;23096;50.892;16.746;2022-12-29T15:06:03;98729.10;;;8.79;56.50
37200;BME280;23096;50.892;16.746;2022-12-29T15:08:37;98718.52;;;8.75;56.55
37200;BME280;23096;50.892;16.746;2022-12-29T15:11:14;98718.27;;;8.70;56.60
37200;BME280;23096;50.892;16.746;2022-12-29T15:13:43;98719.36;;;8.62;56.66
37200;BME280;23096;50.892;16.746;2022-12-29T15:16:24;98731.91;;;8.58;56.76
37200;BME280;23096;50.892;16.746;2022-12-29T15:18:53;98733.77;;;8.53;56.86
37200;BME280;23096;50.892;16.746;2022-12-29T15:21:33;98729.68;;;8.48;56.90
37200;BME280;23096;50.892;16.746;2022-12-29T15:24:02;98717.42;;;8.42;57.02
37200;BME280;23096;50.892;16.746;2022-12-29T15:26:39;98714.20;;;8.36;57.11
37200;BME280;23096;50.892;16.746;2022-12-29T15:32:01;98722.86;;;8.32;57.33
37200;BME280;23096;50.892;16.746;2022-12-29T15:34:44;98702.78;;;8.31;57.44
37200;BME280;23096;50.892;16.746;2022-12-29T15:37:23;98702.78;;;8.31;57.56
37200;BME280;23096;50.892;16.746;2022-12-29T15:39:53;98705.09;;;8.39;57.69
37200;BME280;23096;50.892;16.746;2022-12-29T15:44:51;98698.41;;;8.48;57.84
37200;BME280;23096;50.892;16.746;2022-12-29T15:47:19;98696.63;;;8.50;57.86
37200;BME280;23096;50.892;16.746;2022-12-29T15:49:48;98706.31;;;8.55;57.93
37200;BME280;23096;50.892;16.746;2022-12-29T15:52:17;98709.25;;;8.58;57.96
37200;BME280;23096;50.892;16.746;2022-12-29T15:54:45;98718.52;;;8.62;58.04
37200;BME280;23096;50.892;16.746;2022-12-29T15:57:30;98707.25;;;8.66;58.04
37200;BME280;23096;50.892;16.746;2022-12-29T16:00:26;98716.16;;;8.69;58.14